sensor_id;sensor_type;location;lat;lon;timestamp;P1;durP1;ratioP1;P2;durP2;ratioP2
62724;SDS011;49026;52.600;4.694;2023-07-30T00:00:26;19.60;;;3.60;;
62724;SDS011;49026;52.600;4.694;2023-07-30T00:02:52;22.00;;;4.03;;
62724;SDS011;49026;52.600;4.694;2023-07-30T00:05:17;26.10;;;4.07;;
62724;SDS011;49026;52.600;4.694;2023-07-30T00:07:43;25.20;;;3.95;;
62724;SDS011;49026;52.600;4.694;2023-07-30T00:10:08;29.58;;;4.50;;
62724;SDS011;49026;52.600;4.694;2023-07-30T00:12:34;19.25;;;3.22;;
62724;SDS011;49026;52.600;4.694;2023-07-30T00:15:02;21.75;;;3.22;;
62724;SDS011;49026;52.600;4.694;2023-07-30T00:17:28;24.55;;;5.28;;
62724;SDS011;49026;52.600;4.694;2023-07-30T00:19:55;21.20;;;3.67;;
62724;SDS011;49026;52.600;4.694;2023-07-30T00:22:21;27.42;;;3.63;;
62724;SDS011;49026;52.600;4.694;2023-07-30T00:24:48;24.33;;;3.72;;
62724;SDS011;49026;52.600;4.694;2023-07-30T00:27:15;21.08;;;3.50;;
62724;SDS011;49026;52.600;4.694;2023-07-30T00:29:41;25.67;;;4.22;;
62724;SDS011;49026;52.600;4.694;2023-07-30T00:32:06;18.25;;;3.40;;
62724;SDS011;49026;52.600;4.694;2023-07-30T00:34:32;29.60;;;5.30;;
62724;SDS011;49026;52.600;4.694;2023-07-30T00:36:57;21.58;;;3.67;;
62724;SDS011;49026;52.600;4.694;2023-07-30T00:39:24;25.92;;;3.92;;
62724;SDS011;49026;52.600;4.694;2023-07-30T00:41:50;30.40;;;5.18;;
62724;SDS011;49026;52.600;4.694;2023-07-30T00:44:15;23.92;;;4.53;;
62724;SDS011;49026;52.600;4.694;2023-07-30T00:46:41;22.50;;;4.03;;
62724;SDS011;49026;52.600;4.694;2023-07-30T00:49:06;35.00;;;4.10;;
62724;SDS011;49026;52.600;4.694;2023-07-30T00:51:32;25.23;;;3.53;;
62724;SDS011;49026;52.600;4.694;2023-07-30T00:53:58;20.15;;;3.60;;
62724;SDS011;49026;52.600;4.694;2023-07-30T00:56:25;30.48;;;4.80;;
62724;SDS011;49026;52.600;4.694;2023-07-30T00:58:53;22.13;;;3.72;;
62724;SDS011;49026;52.600;4.694;2023-07-30T01:01:19;28.77;;;4.53;;
62724;SDS011;49026;52.600;4.694;2023-07-30T01:03:45;26.45;;;4.90;;
62724;SDS011;49026;52.600;4.694;2023-07-30T01:06:10;19.95;;;3.58;;
62724;SDS011;49026;52.600;4.694;2023-07-30T01:08:36;17.73;;;4.93;;
62724;SDS011;49026;52.600;4.694;2023-07-30T01:11:02;30.00;;;3.97;;
62724;SDS011;49026;52.600;4.694;2023-07-30T01:13:28;25.60;;;3.22;;
62724;SDS011;49026;52.600;4.694;2023-07-30T01:15:54;20.92;;;3.78;;
62724;SDS011;49026;52.600;4.694;2023-07-30T01:18:19;14.27;;;2.92;;
62724;SDS011;49026;52.600;4.694;2023-07-30T01:20:45;21.25;;;3.45;;
62724;SDS011;49026;52.600;4.694;2023-07-30T01:23:10;15.45;;;2.80;;
62724;SDS011;49026;52.600;4.694;2023-07-30T01:25:36;18.52;;;2.58;;
62724;SDS011;49026;52.600;4.694;2023-07-30T01:28:02;17.23;;;2.70;;
62724;SDS011;49026;52.600;4.694;2023-07-30T01:30:34;10.68;;;2.15;;
62724;SDS011;49026;52.600;4.694;2023-07-30T01:33:06;13.90;;;2.42;;
62724;SDS011;49026;52.600;4.694;2023-07-30T01:35:32;17.60;;;2.78;;
62724;SDS011;49026;52.600;4.694;2023-07-30T01:37:59;20.63;;;2.90;;
62724;SDS011;49026;52.600;4.694;2023-07-30T01:40:28;17.52;;;2.65;;
62724;SDS011;49026;52.600;4.694;2023-07-30T01:42:54;16.88;;;2.22;;
62724;SDS011;49026;52.600;4.694;2023-07-30T01:45:19;10.25;;;2.42;;
62724;SDS011;49026;52.600;4.694;2023-07-30T01:47:47;16.70;;;3.72;;
62724;SDS011;49026;52.600;4.694;2023-07-30T01:50:12;9.98;;;1.63;;
62724;SDS011;49026;52.600;4.694;2023-07-30T01:52:37;15.35;;;2.05;;
62724;SDS011;49026;52.600;4.694;2023-07-30T01:55:03;13.23;;;2.50;;
62724;SDS011;49026;52.600;4.694;2023-07-30T01:57:28;11.23;;;2.28;;
62724;SDS011;49026;52.600;4.694;2023-07-30T01:59:54;9.98;;;1.95;;
62724;SDS011;49026;52.600;4.694;2023-07-30T02:02:21;11.05;;;2.33;;
62724;SDS011;49026;52.600;4.694;2023-07-30T02:04:49;9.20;;;1.80;;
62724;SDS011;49026;52.600;4.694;2023-07-30T02:07:14;11.40;;;1.77;;
62724;SDS011;49026;52.600;4.694;2023-07-30T02:09:39;14.43;;;2.05;;
62724;SDS011;49026;52.600;4.694;2023-07-30T02:12:05;6.30;;;1.13;;
62724;SDS011;49026;52.600;4.694;2023-07-30T02:14:33;14.05;;;1.83;;
62724;SDS011;49026;52.600;4.694;2023-07-30T02:16:58;12.57;;;1.95;;
62724;SDS011;49026;52.600;4.694;2023-07-30T02:19:24;9.70;;;1.83;;
62724;SDS011;49026;52.600;4.694;2023-07-30T02:21:49;8.80;;;1.80;;
62724;SDS011;49026;52.600;4.694;2023-07-30T02:24:14;9.27;;;1.58;;
62724;SDS011;49026;52.600;4.694;2023-07-30T02:26:40;12.38;;;1.85;;
62724;SDS011;49026;52.600;4.694;2023-07-30T02:29:08;11.05;;;1.95;;
62724;SDS011;49026;52.600;4.694;2023-07-30T02:31:33;6.45;;;1.80;;
62724;SDS011;49026;52.600;4.694;2023-07-30T02:33:58;7.95;;;1.30;;
62724;SDS011;49026;52.600;4.694;2023-07-30T02:36:24;9.10;;;1.65;;
62724;SDS011;49026;52.600;4.694;2023-07-30T02:38:51;8.57;;;1.30;;
62724;SDS011;49026;52.600;4.694;2023-07-30T02:41:17;9.05;;;1.88;;
62724;SDS011;49026;52.600;4.694;2023-07-30T02:43:44;10.93;;;1.90;;
62724;SDS011;49026;52.600;4.694;2023-07-30T02:46:10;6.97;;;1.35;;
62724;SDS011;49026;52.600;4.694;2023-07-30T02:48:35;8.63;;;1.40;;
62724;SDS011;49026;52.600;4.694;2023-07-30T02:51:00;7.40;;;1.60;;
62724;SDS011;49026;52.600;4.694;2023-07-30T02:53:26;10.55;;;1.67;;
62724;SDS011;49026;52.600;4.694;2023-07-30T02:55:51;9.60;;;2.13;;
62724;SDS011;49026;52.600;4.694;2023-07-30T02:58:17;5.97;;;1.23;;
62724;SDS011;49026;52.600;4.694;2023-07-30T03:00:42;9.68;;;1.90;;
62724;SDS011;49026;52.600;4.694;2023-07-30T03:03:07;9.27;;;1.85;;
62724;SDS011;49026;52.600;4.694;2023-07-30T03:05:33;9.02;;;1.30;;
62724;SDS011;49026;52.600;4.694;2023-07-30T03:07:58;9.48;;;2.08;;
62724;SDS011;49026;52.600;4.694;2023-07-30T03:10:24;11.85;;;2.00;;
62724;SDS011;49026;52.600;4.694;2023-07-30T03:12:49;9.65;;;1.77;;
62724;SDS011;49026;52.600;4.694;2023-07-30T03:15:14;15.52;;;1.73;;
62724;SDS011;49026;52.600;4.694;2023-07-30T03:17:42;13.77;;;2.15;;
62724;SDS011;49026;52.600;4.694;2023-07-30T03:20:07;6.40;;;1.70;;
62724;SDS011;49026;52.600;4.694;2023-07-30T03:22:33;15.35;;;2.00;;
62724;SDS011;49026;52.600;4.694;2023-07-30T03:24:59;9.38;;;1.70;;
62724;SDS011;49026;52.600;4.694;2023-07-30T03:27:24;8.77;;;2.22;;
62724;SDS011;49026;52.600;4.694;2023-07-30T03:29:49;7.57;;;1.70;;
62724;SDS011;49026;52.600;4.694;2023-07-30T03:32:15;10.85;;;1.80;;
62724;SDS011;49026;52.600;4.694;2023-07-30T03:34:40;10.63;;;1.95;;
62724;SDS011;49026;52.600;4.694;2023-07-30T03:37:05;15.43;;;2.03;;
62724;SDS011;49026;52.600;4.694;2023-07-30T03:39:31;10.20;;;1.73;;
62724;SDS011;49026;52.600;4.694;2023-07-30T03:41:56;12.77;;;2.17;;
62724;SDS011;49026;52.600;4.694;2023-07-30T03:44:21;7.85;;;1.60;;
62724;SDS011;49026;52.600;4.694;2023-07-30T03:46:47;11.60;;;2.25;;
62724;SDS011;49026;52.600;4.694;2023-07-30T03:49:12;6.70;;;2.38;;
62724;SDS011;49026;52.600;4.694;2023-07-30T03:51:40;9.85;;;2.17;;
62724;SDS011;49026;52.600;4.694;2023-07-30T03:54:08;6.95;;;1.52;;
62724;SDS011;49026;52.600;4.694;2023-07-30T03:56:33;11.75;;;1.85;;
62724;SDS011;49026;52.600;4.694;2023-07-30T03:58:58;12.35;;;2.40;;
62724;SDS011;49026;52.600;4.694;2023-07-30T04:01:26;12.25;;;1.77;;
62724;SDS011;49026;52.600;4.694;2023-07-30T04:03:52;7.95;;;2.05;;
62724;SDS011;49026;52.600;4.694;2023-07-30T04:06:18;10.40;;;1.98;;
62724;SDS011;49026;52.600;4.694;2023-07-30T04:08:43;7.55;;;1.63;;
62724;SDS011;49026;52.600;4.694;2023-07-30T04:11:08;12.55;;;2.17;;
62724;SDS011;49026;52.600;4.694;2023-07-30T04:13:34;6.32;;;1.83;;
62724;SDS011;49026;52.600;4.694;2023-07-30T04:15:59;14.85;;;2.13;;
62724;SDS011;49026;52.600;4.694;2023-07-30T04:18:24;11.57;;;2.28;;
62724;SDS011;49026;52.600;4.694;2023-07-30T04:20:50;13.80;;;2.40;;
62724;SDS011;49026;52.600;4.694;2023-07-30T04:23:15;13.77;;;1.67;;
62724;SDS011;49026;52.600;4.694;2023-07-30T04:25:40;12.23;;;1.73;;
62724;SDS011;49026;52.600;4.694;2023-07-30T04:28:08;14.20;;;2.30;;
62724;SDS011;49026;52.600;4.694;2023-07-30T04:30:34;9.68;;;1.52;;
62724;SDS011;49026;52.600;4.694;2023-07-30T04:33:00;8.75;;;1.90;;
62724;SDS011;49026;52.600;4.694;2023-07-30T04:35:25;13.90;;;1.50;;
62724;SDS011;49026;52.600;4.694;2023-07-30T04:37:50;9.35;;;1.75;;
62724;SDS011;49026;52.600;4.694;2023-07-30T04:40:18;7.90;;;1.40;;
62724;SDS011;49026;52.600;4.694;2023-07-30T04:42:43;9.52;;;1.50;;
62724;SDS011;49026;52.600;4.694;2023-07-30T04:45:11;13.80;;;2.95;;
62724;SDS011;49026;52.600;4.694;2023-07-30T04:47:38;8.63;;;1.75;;
62724;SDS011;49026;52.600;4.694;2023-07-30T04:50:03;11.73;;;2.00;;
62724;SDS011;49026;52.600;4.694;2023-07-30T04:52:29;7.40;;;1.77;;
62724;SDS011;49026;52.600;4.694;2023-07-30T04:54:54;6.15;;;1.60;;
62724;SDS011;49026;52.600;4.694;2023-07-30T04:57:19;11.32;;;2.10;;
62724;SDS011;49026;52.600;4.694;2023-07-30T04:59:45;9.52;;;2.00;;
62724;SDS011;49026;52.600;4.694;2023-07-30T05:02:10;9.45;;;1.75;;
62724;SDS011;49026;52.600;4.694;2023-07-30T05:04:35;7.78;;;1.60;;
62724;SDS011;49026;52.600;4.694;2023-07-30T05:07:05;10.57;;;1.40;;
62724;SDS011;49026;52.600;4.694;2023-07-30T05:09:31;9.57;;;1.67;;
62724;SDS011;49026;52.600;4.694;2023-07-30T05:11:56;14.45;;;2.42;;
62724;SDS011;49026;52.600;4.694;2023-07-30T05:14:21;12.82;;;2.08;;
62724;SDS011;49026;52.600;4.694;2023-07-30T05:16:47;11.48;;;2.03;;
62724;SDS011;49026;52.600;4.694;2023-07-30T05:19:12;11.57;;;1.85;;
62724;SDS011;49026;52.600;4.694;2023-07-30T05:21:37;14.75;;;1.85;;
62724;SDS011;49026;52.600;4.694;2023-07-30T05:24:03;13.82;;;1.90;;
62724;SDS011;49026;52.600;4.694;2023-07-30T05:26:31;9.88;;;1.70;;
62724;SDS011;49026;52.600;4.694;2023-07-30T05:28:56;12.35;;;1.88;;
62724;SDS011;49026;52.600;4.694;2023-07-30T05:31:24;18.02;;;1.92;;
62724;SDS011;49026;52.600;4.694;2023-07-30T05:33:49;8.77;;;1.85;;
62724;SDS011;49026;52.600;4.694;2023-07-30T05:36:15;11.27;;;1.92;;
62724;SDS011;49026;52.600;4.694;2023-07-30T05:38:40;10.50;;;1.77;;
62724;SDS011;49026;52.600;4.694;2023-07-30T05:41:05;13.15;;;1.85;;
62724;SDS011;49026;52.600;4.694;2023-07-30T05:43:31;13.13;;;1.88;;
62724;SDS011;49026;52.600;4.694;2023-07-30T05:45:56;6.28;;;1.48;;
62724;SDS011;49026;52.600;4.694;2023-07-30T05:48:21;12.23;;;1.77;;
62724;SDS011;49026;52.600;4.694;2023-07-30T05:50:47;12.90;;;2.50;;
62724;SDS011;49026;52.600;4.694;2023-07-30T05:53:14;14.13;;;2.10;;
62724;SDS011;49026;52.600;4.694;2023-07-30T05:55:40;10.38;;;1.63;;
62724;SDS011;49026;52.600;4.694;2023-07-30T05:58:05;14.02;;;2.58;;
62724;SDS011;49026;52.600;4.694;2023-07-30T06:00:35;18.55;;;2.25;;
62724;SDS011;49026;52.600;4.694;2023-07-30T06:03:01;11.60;;;1.95;;
62724;SDS011;49026;52.600;4.694;2023-07-30T06:05:26;11.80;;;1.85;;
62724;SDS011;49026;52.600;4.694;2023-07-30T06:07:51;16.20;;;2.55;;
62724;SDS011;49026;52.600;4.694;2023-07-30T06:10:17;11.30;;;1.70;;
62724;SDS011;49026;52.600;4.694;2023-07-30T06:12:44;10.30;;;1.77;;
62724;SDS011;49026;52.600;4.694;2023-07-30T06:15:10;14.85;;;2.33;;
62724;SDS011;49026;52.600;4.694;2023-07-30T06:17:35;9.43;;;1.92;;
62724;SDS011;49026;52.600;4.694;2023-07-30T06:20:00;10.05;;;2.10;;
62724;SDS011;49026;52.600;4.694;2023-07-30T06:22:26;12.52;;;1.60;;
62724;SDS011;49026;52.600;4.694;2023-07-30T06:24:51;16.25;;;2.42;;
62724;SDS011;49026;52.600;4.694;2023-07-30T06:27:16;13.13;;;2.05;;
62724;SDS011;49026;52.600;4.694;2023-07-30T06:29:42;12.23;;;2.40;;
62724;SDS011;49026;52.600;4.694;2023-07-30T06:32:07;10.93;;;2.20;;
62724;SDS011;49026;52.600;4.694;2023-07-30T06:34:32;12.35;;;2.33;;
62724;SDS011;49026;52.600;4.694;2023-07-30T06:36:58;12.98;;;2.25;;
62724;SDS011;49026;52.600;4.694;2023-07-30T06:39:23;10.57;;;1.75;;
62724;SDS011;49026;52.600;4.694;2023-07-30T06:41:48;10.63;;;1.50;;
62724;SDS011;49026;52.600;4.694;2023-07-30T06:44:14;9.05;;;1.70;;
62724;SDS011;49026;52.600;4.694;2023-07-30T06:46:39;6.78;;;1.20;;
62724;SDS011;49026;52.600;4.694;2023-07-30T06:49:04;16.27;;;2.08;;
62724;SDS011;49026;52.600;4.694;2023-07-30T06:51:35;13.68;;;2.20;;
62724;SDS011;49026;52.600;4.694;2023-07-30T06:54:00;11.88;;;2.05;;
62724;SDS011;49026;52.600;4.694;2023-07-30T06:56:26;15.50;;;2.28;;
62724;SDS011;49026;52.600;4.694;2023-07-30T06:58:51;8.77;;;1.50;;
62724;SDS011;49026;52.600;4.694;2023-07-30T07:01:16;9.75;;;1.77;;
62724;SDS011;49026;52.600;4.694;2023-07-30T07:03:42;8.85;;;2.00;;
62724;SDS011;49026;52.600;4.694;2023-07-30T07:06:07;11.27;;;1.70;;
62724;SDS011;49026;52.600;4.694;2023-07-30T07:08:32;17.23;;;3.13;;
62724;SDS011;49026;52.600;4.694;2023-07-30T07:10:58;16.67;;;2.72;;
62724;SDS011;49026;52.600;4.694;2023-07-30T07:13:23;18.45;;;2.47;;
62724;SDS011;49026;52.600;4.694;2023-07-30T07:15:48;11.00;;;1.98;;
62724;SDS011;49026;52.600;4.694;2023-07-30T07:18:20;7.95;;;1.52;;
62724;SDS011;49026;52.600;4.694;2023-07-30T07:20:45;15.68;;;2.03;;
62724;SDS011;49026;52.600;4.694;2023-07-30T07:23:10;15.50;;;2.50;;
62724;SDS011;49026;52.600;4.694;2023-07-30T07:25:35;14.05;;;1.90;;
62724;SDS011;49026;52.600;4.694;2023-07-30T07:28:07;10.35;;;2.00;;
62724;SDS011;49026;52.600;4.694;2023-07-30T07:30:34;12.55;;;2.33;;
62724;SDS011;49026;52.600;4.694;2023-07-30T07:33:01;6.35;;;1.10;;
62724;SDS011;49026;52.600;4.694;2023-07-30T07:35:26;6.93;;;1.63;;
62724;SDS011;49026;52.600;4.694;2023-07-30T07:37:52;5.20;;;0.98;;
62724;SDS011;49026;52.600;4.694;2023-07-30T07:40:17;9.13;;;2.65;;
62724;SDS011;49026;52.600;4.694;2023-07-30T07:42:42;10.93;;;1.92;;
62724;SDS011;49026;52.600;4.694;2023-07-30T07:45:08;8.32;;;1.55;;
62724;SDS011;49026;52.600;4.694;2023-07-30T07:47:34;5.43;;;1.98;;
62724;SDS011;49026;52.600;4.694;2023-07-30T07:49:59;9.55;;;1.52;;
62724;SDS011;49026;52.600;4.694;2023-07-30T07:52:24;9.07;;;1.88;;
62724;SDS011;49026;52.600;4.694;2023-07-30T07:54:53;9.93;;;2.03;;
62724;SDS011;49026;52.600;4.694;2023-07-30T07:57:18;12.25;;;1.83;;
62724;SDS011;49026;52.600;4.694;2023-07-30T07:59:43;7.88;;;1.55;;
62724;SDS011;49026;52.600;4.694;2023-07-30T08:02:10;14.25;;;2.05;;
62724;SDS011;49026;52.600;4.694;2023-07-30T08:04:36;17.90;;;2.38;;
62724;SDS011;49026;52.600;4.694;2023-07-30T08:07:02;11.65;;;2.22;;
62724;SDS011;49026;52.600;4.694;2023-07-30T08:09:28;10.23;;;1.63;;
62724;SDS011;49026;52.600;4.694;2023-07-30T08:11:54;14.70;;;2.53;;
62724;SDS011;49026;52.600;4.694;2023-07-30T08:14:19;11.13;;;1.63;;
62724;SDS011;49026;52.600;4.694;2023-07-30T08:16:45;11.30;;;2.10;;
62724;SDS011;49026;52.600;4.694;2023-07-30T08:19:10;15.57;;;2.47;;
62724;SDS011;49026;52.600;4.694;2023-07-30T08:21:36;11.35;;;1.80;;
62724;SDS011;49026;52.600;4.694;2023-07-30T08:24:02;10.50;;;1.67;;
62724;SDS011;49026;52.600;4.694;2023-07-30T08:26:30;7.50;;;1.45;;
62724;SDS011;49026;52.600;4.694;2023-07-30T08:29:00;8.25;;;2.20;;
62724;SDS011;49026;52.600;4.694;2023-07-30T08:31:25;12.32;;;1.98;;
62724;SDS011;49026;52.600;4.694;2023-07-30T08:33:50;11.63;;;1.88;;
62724;SDS011;49026;52.600;4.694;2023-07-30T08:36:16;8.38;;;1.40;;
62724;SDS011;49026;52.600;4.694;2023-07-30T08:38:41;10.48;;;2.25;;
62724;SDS011;49026;52.600;4.694;2023-07-30T08:41:06;7.80;;;1.48;;
62724;SDS011;49026;52.600;4.694;2023-07-30T08:43:32;9.52;;;1.85;;
62724;SDS011;49026;52.600;4.694;2023-07-30T08:45:59;9.55;;;1.80;;
62724;SDS011;49026;52.600;4.694;2023-07-30T08:48:25;8.80;;;1.58;;
62724;SDS011;49026;52.600;4.694;2023-07-30T08:50:58;11.35;;;2.28;;
62724;SDS011;49026;52.600;4.694;2023-07-30T08:53:24;8.27;;;2.17;;
62724;SDS011;49026;52.600;4.694;2023-07-30T08:55:55;10.10;;;1.90;;
62724;SDS011;49026;52.600;4.694;2023-07-30T08:58:25;11.95;;;1.75;;
62724;SDS011;49026;52.600;4.694;2023-07-30T09:00:53;10.88;;;2.28;;
62724;SDS011;49026;52.600;4.694;2023-07-30T09:03:20;12.35;;;2.15;;
62724;SDS011;49026;52.600;4.694;2023-07-30T09:05:50;11.27;;;1.85;;
62724;SDS011;49026;52.600;4.694;2023-07-30T09:08:16;9.02;;;1.50;;
62724;SDS011;49026;52.600;4.694;2023-07-30T09:10:45;14.20;;;2.05;;
62724;SDS011;49026;52.600;4.694;2023-07-30T09:13:14;8.93;;;2.00;;
62724;SDS011;49026;52.600;4.694;2023-07-30T09:15:47;10.25;;;1.95;;
62724;SDS011;49026;52.600;4.694;2023-07-30T09:18:13;12.10;;;2.28;;
62724;SDS011;49026;52.600;4.694;2023-07-30T09:20:44;14.77;;;2.58;;
62724;SDS011;49026;52.600;4.694;2023-07-30T09:23:10;13.25;;;2.10;;
62724;SDS011;49026;52.600;4.694;2023-07-30T09:25:40;4.78;;;1.30;;
62724;SDS011;49026;52.600;4.694;2023-07-30T09:28:06;12.23;;;2.20;;
62724;SDS011;49026;52.600;4.694;2023-07-30T09:30:34;9.52;;;2.17;;
62724;SDS011;49026;52.600;4.694;2023-07-30T09:33:02;9.65;;;1.98;;
62724;SDS011;49026;52.600;4.694;2023-07-30T09:35:27;8.68;;;2.63;;
62724;SDS011;49026;52.600;4.694;2023-07-30T09:37:59;12.85;;;2.47;;
62724;SDS011;49026;52.600;4.694;2023-07-30T09:40:31;13.55;;;2.53;;
62724;SDS011;49026;52.600;4.694;2023-07-30T09:43:06;10.33;;;1.93;;
62724;SDS011;49026;52.600;4.694;2023-07-30T09:45:37;8.27;;;2.05;;
62724;SDS011;49026;52.600;4.694;2023-07-30T09:48:03;10.30;;;2.25;;
62724;SDS011;49026;52.600;4.694;2023-07-30T09:50:30;7.13;;;1.52;;
62724;SDS011;49026;52.600;4.694;2023-07-30T09:53:00;16.25;;;2.50;;
62724;SDS011;49026;52.600;4.694;2023-07-30T09:55:26;12.70;;;2.30;;
62724;SDS011;49026;52.600;4.694;2023-07-30T09:57:52;11.30;;;1.90;;
62724;SDS011;49026;52.600;4.694;2023-07-30T10:00:17;9.90;;;2.17;;
62724;SDS011;49026;52.600;4.694;2023-07-30T10:02:46;9.52;;;1.73;;
62724;SDS011;49026;52.600;4.694;2023-07-30T10:05:16;18.55;;;2.05;;
62724;SDS011;49026;52.600;4.694;2023-07-30T10:07:48;12.65;;;1.50;;
62724;SDS011;49026;52.600;4.694;2023-07-30T10:10:18;14.85;;;2.28;;
62724;SDS011;49026;52.600;4.694;2023-07-30T10:12:45;8.38;;;1.88;;
62724;SDS011;49026;52.600;4.694;2023-07-30T10:15:11;15.95;;;1.92;;
62724;SDS011;49026;52.600;4.694;2023-07-30T10:17:37;11.75;;;2.35;;
62724;SDS011;49026;52.600;4.694;2023-07-30T10:20:17;10.15;;;2.25;;
62724;SDS011;49026;52.600;4.694;2023-07-30T10:22:46;15.70;;;2.25;;
62724;SDS011;49026;52.600;4.694;2023-07-30T10:25:12;11.43;;;1.80;;
62724;SDS011;49026;52.600;4.694;2023-07-30T10:27:38;17.02;;;2.20;;
62724;SDS011;49026;52.600;4.694;2023-07-30T10:30:14;11.30;;;1.83;;
62724;SDS011;49026;52.600;4.694;2023-07-30T10:35:34;14.15;;;2.63;;
62724;SDS011;49026;52.600;4.694;2023-07-30T10:38:21;10.57;;;1.70;;
62724;SDS011;49026;52.600;4.694;2023-07-30T10:43:27;9.57;;;1.73;;
62724;SDS011;49026;52.600;4.694;2023-07-30T10:45:56;12.55;;;1.83;;
62724;SDS011;49026;52.600;4.694;2023-07-30T10:48:31;10.63;;;2.00;;
62724;SDS011;49026;52.600;4.694;2023-07-30T10:51:04;14.07;;;2.10;;
62724;SDS011;49026;52.600;4.694;2023-07-30T10:53:32;14.68;;;2.65;;
62724;SDS011;49026;52.600;4.694;2023-07-30T10:56:01;9.15;;;1.90;;
62724;SDS011;49026;52.600;4.694;2023-07-30T10:58:31;9.05;;;2.10;;
62724;SDS011;49026;52.600;4.694;2023-07-30T11:00:58;9.13;;;1.88;;
62724;SDS011;49026;52.600;4.694;2023-07-30T11:03:25;10.50;;;2.28;;
62724;SDS011;49026;52.600;4.694;2023-07-30T11:05:51;5.95;;;1.73;;
62724;SDS011;49026;52.600;4.694;2023-07-30T11:11:03;15.32;;;2.70;;
62724;SDS011;49026;52.600;4.694;2023-07-30T11:13:29;9.25;;;1.85;;
62724;SDS011;49026;52.600;4.694;2023-07-30T11:16:02;12.02;;;2.03;;
62724;SDS011;49026;52.600;4.694;2023-07-30T11:18:31;9.88;;;1.90;;
62724;SDS011;49026;52.600;4.694;2023-07-30T11:21:17;10.88;;;2.35;;
62724;SDS011;49026;52.600;4.694;2023-07-30T11:23:44;10.13;;;1.45;;
62724;SDS011;49026;52.600;4.694;2023-07-30T11:26:15;8.63;;;1.73;;
62724;SDS011;49026;52.600;4.694;2023-07-30T11:28:42;11.88;;;2.33;;
62724;SDS011;49026;52.600;4.694;2023-07-30T11:31:11;15.52;;;2.65;;
62724;SDS011;49026;52.600;4.694;2023-07-30T11:33:39;11.57;;;1.80;;
62724;SDS011;49026;52.600;4.694;2023-07-30T11:36:06;6.97;;;1.58;;
62724;SDS011;49026;52.600;4.694;2023-07-30T11:38:45;11.25;;;1.73;;
62724;SDS011;49026;52.600;4.694;2023-07-30T11:41:11;13.57;;;1.88;;
62724;SDS011;49026;52.600;4.694;2023-07-30T11:43:41;10.82;;;2.03;;
62724;SDS011;49026;52.600;4.694;2023-07-30T11:48:36;11.52;;;1.92;;
62724;SDS011;49026;52.600;4.694;2023-07-30T11:51:02;9.32;;;1.90;;
62724;SDS011;49026;52.600;4.694;2023-07-30T11:53:45;12.43;;;2.42;;
62724;SDS011;49026;52.600;4.694;2023-07-30T11:56:22;15.98;;;2.00;;
62724;SDS011;49026;52.600;4.694;2023-07-30T11:58:50;8.77;;;1.92;;
62724;SDS011;49026;52.600;4.694;2023-07-30T12:01:17;14.55;;;2.53;;
62724;SDS011;49026;52.600;4.694;2023-07-30T12:03:43;12.15;;;2.22;;
62724;SDS011;49026;52.600;4.694;2023-07-30T12:06:09;10.70;;;1.70;;
62724;SDS011;49026;52.600;4.694;2023-07-30T12:08:38;14.25;;;2.28;;
62724;SDS011;49026;52.600;4.694;2023-07-30T12:11:06;10.85;;;2.13;;
62724;SDS011;49026;52.600;4.694;2023-07-30T12:13:41;9.88;;;1.80;;
62724;SDS011;49026;52.600;4.694;2023-07-30T12:16:09;14.52;;;2.65;;
62724;SDS011;49026;52.600;4.694;2023-07-30T12:18:34;10.23;;;1.58;;
62724;SDS011;49026;52.600;4.694;2023-07-30T12:21:02;10.77;;;2.38;;
62724;SDS011;49026;52.600;4.694;2023-07-30T12:23:27;9.07;;;2.00;;
62724;SDS011;49026;52.600;4.694;2023-07-30T12:26:00;15.98;;;2.63;;
62724;SDS011;49026;52.600;4.694;2023-07-30T12:28:29;15.15;;;3.03;;
62724;SDS011;49026;52.600;4.694;2023-07-30T12:30:54;14.55;;;2.13;;
62724;SDS011;49026;52.600;4.694;2023-07-30T12:33:19;11.50;;;2.17;;
62724;SDS011;49026;52.600;4.694;2023-07-30T12:35:45;7.00;;;1.48;;
62724;SDS011;49026;52.600;4.694;2023-07-30T12:38:12;12.40;;;1.88;;
62724;SDS011;49026;52.600;4.694;2023-07-30T12:40:38;18.20;;;2.25;;
62724;SDS011;49026;52.600;4.694;2023-07-30T12:43:03;13.93;;;1.60;;
62724;SDS011;49026;52.600;4.694;2023-07-30T12:45:31;14.27;;;2.42;;
62724;SDS011;49026;52.600;4.694;2023-07-30T12:48:02;12.07;;;2.58;;
62724;SDS011;49026;52.600;4.694;2023-07-30T12:50:27;8.60;;;1.77;;
62724;SDS011;49026;52.600;4.694;2023-07-30T12:52:53;15.48;;;1.90;;
62724;SDS011;49026;52.600;4.694;2023-07-30T12:55:18;13.75;;;2.42;;
62724;SDS011;49026;52.600;4.694;2023-07-30T12:57:46;10.93;;;1.80;;
62724;SDS011;49026;52.600;4.694;2023-07-30T13:00:12;10.18;;;1.77;;
62724;SDS011;49026;52.600;4.694;2023-07-30T13:02:37;9.18;;;1.27;;
62724;SDS011;49026;52.600;4.694;2023-07-30T13:05:03;11.40;;;1.88;;
62724;SDS011;49026;52.600;4.694;2023-07-30T13:07:29;9.75;;;2.08;;
62724;SDS011;49026;52.600;4.694;2023-07-30T13:10:09;11.45;;;1.55;;
62724;SDS011;49026;52.600;4.694;2023-07-30T13:12:34;11.70;;;2.13;;
62724;SDS011;49026;52.600;4.694;2023-07-30T13:15:00;10.07;;;1.85;;
62724;SDS011;49026;52.600;4.694;2023-07-30T13:17:26;7.68;;;1.77;;
62724;SDS011;49026;52.600;4.694;2023-07-30T13:19:52;11.18;;;2.45;;
62724;SDS011;49026;52.600;4.694;2023-07-30T13:22:19;8.50;;;1.95;;
62724;SDS011;49026;52.600;4.694;2023-07-30T13:24:45;12.05;;;2.22;;
62724;SDS011;49026;52.600;4.694;2023-07-30T13:27:13;11.48;;;1.92;;
62724;SDS011;49026;52.600;4.694;2023-07-30T13:29:38;9.80;;;1.58;;
62724;SDS011;49026;52.600;4.694;2023-07-30T13:32:06;8.55;;;1.92;;
62724;SDS011;49026;52.600;4.694;2023-07-30T13:34:31;11.02;;;2.00;;
62724;SDS011;49026;52.600;4.694;2023-07-30T13:36:57;12.10;;;1.88;;
62724;SDS011;49026;52.600;4.694;2023-07-30T13:39:22;11.32;;;1.95;;
62724;SDS011;49026;52.600;4.694;2023-07-30T13:41:50;12.18;;;2.30;;
62724;SDS011;49026;52.600;4.694;2023-07-30T13:44:15;6.25;;;1.63;;
62724;SDS011;49026;52.600;4.694;2023-07-30T13:46:41;10.60;;;1.80;;
62724;SDS011;49026;52.600;4.694;2023-07-30T13:49:06;11.23;;;2.05;;
62724;SDS011;49026;52.600;4.694;2023-07-30T13:51:34;9.02;;;1.75;;
62724;SDS011;49026;52.600;4.694;2023-07-30T13:53:59;8.75;;;2.13;;
62724;SDS011;49026;52.600;4.694;2023-07-30T13:56:25;7.47;;;1.83;;
62724;SDS011;49026;52.600;4.694;2023-07-30T13:58:51;8.00;;;1.65;;
62724;SDS011;49026;52.600;4.694;2023-07-30T14:01:17;10.07;;;1.77;;
62724;SDS011;49026;52.600;4.694;2023-07-30T14:03:44;12.15;;;2.15;;
62724;SDS011;49026;52.600;4.694;2023-07-30T14:06:10;10.70;;;1.60;;
62724;SDS011;49026;52.600;4.694;2023-07-30T14:08:35;9.65;;;1.42;;
62724;SDS011;49026;52.600;4.694;2023-07-30T14:11:01;17.83;;;2.15;;
62724;SDS011;49026;52.600;4.694;2023-07-30T14:13:26;11.45;;;1.95;;
62724;SDS011;49026;52.600;4.694;2023-07-30T14:15:52;12.45;;;1.85;;
62724;SDS011;49026;52.600;4.694;2023-07-30T14:18:17;10.05;;;1.88;;
62724;SDS011;49026;52.600;4.694;2023-07-30T14:20:43;9.70;;;1.60;;
62724;SDS011;49026;52.600;4.694;2023-07-30T14:23:10;8.65;;;1.45;;
62724;SDS011;49026;52.600;4.694;2023-07-30T14:25:36;8.63;;;1.90;;
62724;SDS011;49026;52.600;4.694;2023-07-30T14:28:04;11.80;;;1.58;;
62724;SDS011;49026;52.600;4.694;2023-07-30T14:30:29;19.35;;;2.42;;
62724;SDS011;49026;52.600;4.694;2023-07-30T14:32:55;15.73;;;2.38;;
62724;SDS011;49026;52.600;4.694;2023-07-30T14:35:21;11.65;;;2.53;;
62724;SDS011;49026;52.600;4.694;2023-07-30T14:37:46;11.15;;;1.90;;
62724;SDS011;49026;52.600;4.694;2023-07-30T14:40:12;16.80;;;2.72;;
62724;SDS011;49026;52.600;4.694;2023-07-30T14:42:37;8.13;;;2.00;;
62724;SDS011;49026;52.600;4.694;2023-07-30T14:45:04;7.85;;;1.73;;